Terminal Aerodrome Forecast
Issued by NWS St Louis, MO

Home | Current Version | Previous Version | Graphics & Text | Print | Product List | Glossary On
Versions: 1 2 3 4 5 6 7 8 9 10 11 12 13 14 15 16 17 18 19 20 21 22 23 24 25 26 27
142
FTUS43 KLSX 232056 AAA
TAFSTL
TAF AMD
KSTL 232056Z 2321/2424 32007KT P6SM VCSH SCT030 BKN050
     FM240000 32006KT P6SM BKN050
     FM241200 30006KT P6SM BKN025=

USA.gov is the U.S. government's official web portal to all federal, state and local government web resources and services.